Filia Ariea — PIET — position and weather

sailwx.info

Track history (hours):
 
Tides and Currents Weather Stations Pressure Air Temp Water Temp Dewpoint Dewpoint Depression Visibility Wind Speed Wind Dir Waves Ship Positions

Filia Ariea

Last reported at 2014-Aug-29 18:08 UTC. Time now 2014-Aug-30 02:26 UTC.
Position N 57°39' E 018°02'.

Length 90 m; draft 3.3 m.

Type: Cargo ship. MMSI: 244662000.

Date/timePositionNaut miles runAvg speedWind from/ knotsBaromVisibWave heightAir tempDewpointWater temp
2014-Aug-29 18:08N 57°39' E 018°02'710.7
2014-Aug-29 17:28N 57°33' E 017°55'1010.9
2014-Aug-29 16:33N 57°24' E 017°47'1311.3
2014-Aug-29 15:24N 57°13' E 017°36'9011.0
2014-Aug-29 07:14N 55°55' E 016°16'811.4
2014-Aug-29 06:33N 55°51' E 016°04'1211.5
2014-Aug-29 05:33N 55°45' E 015°47'1111.1
2014-Aug-29 04:33N 55°38' E 015°30'1111.3
2014-Aug-29 03:33N 55°32' E 015°14'1211.0
2014-Aug-29 02:30N 55°27' E 014°55'1111.2
2014-Aug-29 01:33N 55°22' E 014°39'1211.6
2014-Aug-29 00:33N 55°14' E 014°24'1110.6
2014-Aug-28 23:31N 55°11' E 014°06'1111.3
2014-Aug-28 22:32N 55°12' E 013°46'1211.7
2014-Aug-28 21:33N 55°13' E 013°26'1211.6
2014-Aug-28 20:33N 55°14' E 013°06'1111.3
2014-Aug-28 19:33N 55°16' E 012°47'8 8.5
2014-Aug-28 18:33N 55°24' E 012°39'1110.6
2014-Aug-28 17:33N 55°34' E 012°42'10 9.8
2014-Aug-28 16:33N 55°44' E 012°41'1110.6
2014-Aug-28 15:33N 55°54' E 012°39'10 9.7
2014-Aug-28 14:33N 56°04' E 012°37'10 9.9
2014-Aug-28 13:33N 56°12' E 012°27'1111.4
2014-Aug-28 12:33N 56°23' E 012°18'1111.3
2014-Aug-28 11:33N 56°33' E 012°09'1711.7
2014-Aug-28 10:04N 56°48' E 011°53'2211.6
2014-Aug-28 08:12N 57°07' E 011°33'711.6
2014-Aug-28 07:33N 57°13' E 011°26'1211.8
2014-Aug-28 06:31N 57°24' E 011°14'1212.1
2014-Aug-28 05:33N 57°33' E 011°02'1211.8
2014-Aug-28 04:33N 57°43' E 010°49'1010.0
2014-Aug-28 03:33N 57°46' E 010°32'1111.4
2014-Aug-28 02:33N 57°41' E 010°12'1612.2
2014-Aug-28 01:14N 57°34' E 009°45'812.1
2014-Aug-28 00:33N 57°30' E 009°32'1211.9
2014-Aug-27 23:33N 57°23' E 009°14'1212.0
2014-Aug-27 22:33N 57°17' E 008°55'1212.1
2014-Aug-27 21:33N 57°10' E 008°36'1212.2
2014-Aug-27 20:33N 57°02' E 008°19'1311.9
2014-Aug-27 19:28N 56°51' E 008°09'4711.9
2014-Aug-27 15:29N 56°04' E 007°53'1111.9
2014-Aug-27 14:33N 55°53' E 007°51'1211.8
2014-Aug-27 13:33N 55°41' E 007°50'1110.5
2014-Aug-27 12:33N 55°31' E 007°56'1111.3
2014-Aug-27 11:33N 55°26' E 008°13'8 7.8
2014-Aug-27 10:33N 55°28' E 008°26'0 0.0
2014-Aug-27 09:31N 55°28' E 008°26'0 0.0
2014-Aug-27 08:31N 55°28' E 008°26'0 0.0
2014-Aug-27 07:30N 55°28' E 008°26'0 0.0
2014-Aug-27 06:33N 55°28' E 008°26'0 0.0
2014-Aug-27 05:33N 55°28' E 008°26'0 0.0
2014-Aug-27 04:32N 55°28' E 008°26'0 0.0
2014-Aug-27 03:32N 55°28' E 008°26'0 0.0
2014-Aug-27 02:25N 55°28' E 008°26'0 0.0
2014-Aug-27 01:31N 55°28' E 008°26'0 0.0
2014-Aug-27 00:33N 55°28' E 008°26'0 0.0
2014-Aug-26 23:33N 55°28' E 008°26'0 0.0
2014-Aug-26 22:33N 55°28' E 008°26'0 0.0
2014-Aug-26 21:32N 55°28' E 008°26'0 0.0
2014-Aug-26 20:32N 55°28' E 008°26'0 0.0
2014-Aug-26 19:32N 55°28' E 008°26'4 3.8
2014-Aug-26 18:33N 55°28' E 008°20'1010.2
2014-Aug-26 17:34N 55°21' E 008°06'11511.2
2014-Aug-26 07:20N 54°03' E 005°41'911.4
2014-Aug-26 06:31N 53°57' E 005°29'1111.1
2014-Aug-26 05:34N 53°50' E 005°16'1210.5
2014-Aug-26 04:25N 53°42' E 005°01'9 9.5
2014-Aug-26 03:27N 53°36' E 004°50'9 9.2
2014-Aug-26 02:31N 53°28' E 004°45'9 8.5
2014-Aug-26 01:29N 53°20' E 004°37'13310.2
2014-Aug-25 12:32N 51°35' E 002°24'1312.4
2014-Aug-25 11:29N 51°24' E 002°12'1212.2
2014-Aug-25 10:32N 51°15' E 002°03'116 8.8
2014-Aug-24 21:24N 50°34' W 000°50'1011.5
2014-Aug-24 20:33N 50°38' W 001°04'0 0.4
2014-Aug-24 19:33N 50°38' W 001°04'0 0.0
2014-Aug-24 18:32N 50°38' W 001°04'0 0.0
2014-Aug-24 17:32N 50°38' W 001°04'0 0.0
2014-Aug-24 16:31N 50°38' W 001°04'0 0.1
2014-Aug-24 14:06N 50°38' W 001°04'0 0.0
2014-Aug-24 13:33N 50°38' W 001°04'0 0.0
2014-Aug-24 12:33N 50°38' W 001°04'0 0.0
2014-Aug-24 11:32N 50°38' W 001°04'0 0.1
2014-Aug-24 10:32N 50°38' W 001°04'0 0.1
2014-Aug-24 09:31N 50°38' W 001°04'0 0.0
2014-Aug-24 08:31N 50°38' W 001°04'0 0.0
2014-Aug-24 07:33N 50°38' W 001°04'0 0.0
2014-Aug-24 06:30N 50°38' W 001°04'0 0.0
2014-Aug-24 05:33N 50°38' W 001°04'0 0.0
2014-Aug-24 04:32N 50°38' W 001°04'0 0.1
2014-Aug-24 03:32N 50°38' W 001°04'0 0.0
2014-Aug-23 23:06N 50°38' W 001°04'0 0.1
2014-Aug-23 22:30N 50°38' W 001°04'0 0.1
2014-Aug-23 21:32N 50°38' W 001°04'0 0.0
2014-Aug-23 20:32N 50°38' W 001°04'5 5.1
2014-Aug-23 19:31N 50°34' W 001°09'  
Track history (hours):
 
Tides and Currents Weather Stations Pressure Air Temp Water Temp Dewpoint Dewpoint Depression Visibility Wind Speed Wind Dir Waves Ship Positions

Filia Ariea

Last reported at 2014-Aug-29 18:08 UTC. Time now 2014-Aug-30 02:26 UTC.
Position N 57°39' E 018°02'.

Length 90 m; draft 3.3 m.

Type: Cargo ship. MMSI: 244662000.

Date/timePositionNaut miles runAvg speedWind from/ knotsBaromVisibWave heightAir tempDewpointWater temp
2014-Aug-29 18:08N 57°39' E 018°02'710.7
2014-Aug-29 17:28N 57°33' E 017°55'1010.9
2014-Aug-29 16:33N 57°24' E 017°47'1311.3
2014-Aug-29 15:24N 57°13' E 017°36'9011.0
2014-Aug-29 07:14N 55°55' E 016°16'811.4
2014-Aug-29 06:33N 55°51' E 016°04'1211.5
2014-Aug-29 05:33N 55°45' E 015°47'1111.1
2014-Aug-29 04:33N 55°38' E 015°30'1111.3
2014-Aug-29 03:33N 55°32' E 015°14'1211.0
2014-Aug-29 02:30N 55°27' E 014°55'1111.2
2014-Aug-29 01:33N 55°22' E 014°39'1211.6
2014-Aug-29 00:33N 55°14' E 014°24'1110.6
2014-Aug-28 23:31N 55°11' E 014°06'1111.3
2014-Aug-28 22:32N 55°12' E 013°46'1211.7
2014-Aug-28 21:33N 55°13' E 013°26'1211.6
2014-Aug-28 20:33N 55°14' E 013°06'1111.3
2014-Aug-28 19:33N 55°16' E 012°47'8 8.5
2014-Aug-28 18:33N 55°24' E 012°39'1110.6
2014-Aug-28 17:33N 55°34' E 012°42'10 9.8
2014-Aug-28 16:33N 55°44' E 012°41'1110.6
2014-Aug-28 15:33N 55°54' E 012°39'10 9.7
2014-Aug-28 14:33N 56°04' E 012°37'10 9.9
2014-Aug-28 13:33N 56°12' E 012°27'1111.4
2014-Aug-28 12:33N 56°23' E 012°18'1111.3
2014-Aug-28 11:33N 56°33' E 012°09'1711.7
2014-Aug-28 10:04N 56°48' E 011°53'2211.6
2014-Aug-28 08:12N 57°07' E 011°33'711.6
2014-Aug-28 07:33N 57°13' E 011°26'1211.8
2014-Aug-28 06:31N 57°24' E 011°14'1212.1
2014-Aug-28 05:33N 57°33' E 011°02'1211.8
2014-Aug-28 04:33N 57°43' E 010°49'1010.0
2014-Aug-28 03:33N 57°46' E 010°32'1111.4
2014-Aug-28 02:33N 57°41' E 010°12'1612.2
2014-Aug-28 01:14N 57°34' E 009°45'812.1
2014-Aug-28 00:33N 57°30' E 009°32'1211.9
2014-Aug-27 23:33N 57°23' E 009°14'1212.0
2014-Aug-27 22:33N 57°17' E 008°55'1212.1
2014-Aug-27 21:33N 57°10' E 008°36'1212.2
2014-Aug-27 20:33N 57°02' E 008°19'1311.9
2014-Aug-27 19:28N 56°51' E 008°09'4711.9
2014-Aug-27 15:29N 56°04' E 007°53'1111.9
2014-Aug-27 14:33N 55°53' E 007°51'1211.8
2014-Aug-27 13:33N 55°41' E 007°50'1110.5
2014-Aug-27 12:33N 55°31' E 007°56'1111.3
2014-Aug-27 11:33N 55°26' E 008°13'8 7.8
2014-Aug-27 10:33N 55°28' E 008°26'0 0.0
2014-Aug-27 09:31N 55°28' E 008°26'0 0.0
2014-Aug-27 08:31N 55°28' E 008°26'0 0.0
2014-Aug-27 07:30N 55°28' E 008°26'0 0.0
2014-Aug-27 06:33N 55°28' E 008°26'0 0.0
2014-Aug-27 05:33N 55°28' E 008°26'0 0.0
2014-Aug-27 04:32N 55°28' E 008°26'0 0.0
2014-Aug-27 03:32N 55°28' E 008°26'0 0.0
2014-Aug-27 02:25N 55°28' E 008°26'0 0.0
2014-Aug-27 01:31N 55°28' E 008°26'0 0.0
2014-Aug-27 00:33N 55°28' E 008°26'0 0.0
2014-Aug-26 23:33N 55°28' E 008°26'0 0.0
2014-Aug-26 22:33N 55°28' E 008°26'0 0.0
2014-Aug-26 21:32N 55°28' E 008°26'0 0.0
2014-Aug-26 20:32N 55°28' E 008°26'0 0.0
2014-Aug-26 19:32N 55°28' E 008°26'4 3.8
2014-Aug-26 18:33N 55°28' E 008°20'1010.2
2014-Aug-26 17:34N 55°21' E 008°06'11511.2
2014-Aug-26 07:20N 54°03' E 005°41'911.4
2014-Aug-26 06:31N 53°57' E 005°29'1111.1
2014-Aug-26 05:34N 53°50' E 005°16'1210.5
2014-Aug-26 04:25N 53°42' E 005°01'9 9.5
2014-Aug-26 03:27N 53°36' E 004°50'9 9.2
2014-Aug-26 02:31N 53°28' E 004°45'9 8.5
2014-Aug-26 01:29N 53°20' E 004°37'13310.2
2014-Aug-25 12:32N 51°35' E 002°24'1312.4
2014-Aug-25 11:29N 51°24' E 002°12'1212.2
2014-Aug-25 10:32N 51°15' E 002°03'116 8.8
2014-Aug-24 21:24N 50°34' W 000°50'1011.5
2014-Aug-24 20:33N 50°38' W 001°04'0 0.4
2014-Aug-24 19:33N 50°38' W 001°04'0 0.0
2014-Aug-24 18:32N 50°38' W 001°04'0 0.0
2014-Aug-24 17:32N 50°38' W 001°04'0 0.0
2014-Aug-24 16:31N 50°38' W 001°04'0 0.1
2014-Aug-24 14:06N 50°38' W 001°04'0 0.0
2014-Aug-24 13:33N 50°38' W 001°04'0 0.0
2014-Aug-24 12:33N 50°38' W 001°04'0 0.0
2014-Aug-24 11:32N 50°38' W 001°04'0 0.1
2014-Aug-24 10:32N 50°38' W 001°04'0 0.1
2014-Aug-24 09:31N 50°38' W 001°04'0 0.0
2014-Aug-24 08:31N 50°38' W 001°04'0 0.0
2014-Aug-24 07:33N 50°38' W 001°04'0 0.0
2014-Aug-24 06:30N 50°38' W 001°04'0 0.0
2014-Aug-24 05:33N 50°38' W 001°04'0 0.0
2014-Aug-24 04:32N 50°38' W 001°04'0 0.1
2014-Aug-24 03:32N 50°38' W 001°04'0 0.0
2014-Aug-23 23:06N 50°38' W 001°04'0 0.1
2014-Aug-23 22:30N 50°38' W 001°04'0 0.1
2014-Aug-23 21:32N 50°38' W 001°04'0 0.0
2014-Aug-23 20:32N 50°38' W 001°04'5 5.1
2014-Aug-23 19:31N 50°34' W 001°09'  

Dump ship's entire track history